Time;durP1;ratioP1;P1;durP2;ratioP2;P2;SDS_P1;SDS_P2;PMS_P1;PMS_P2;Temp;Humidity;BMP_temperature;BMP_pressure;BME280_temperature;BME280_humidity;BME280_pressure;Samples;Min_cycle;Max_cycle;Signal;HPM_P1;HPM_P2
2021/01/30 00:02:20;;;;;;;7.85;5.18;;;;;;;9.09;59.84;98574.66;4981271;27;111226;-62
2021/01/30 00:04:49;;;;;;;7.25;5.25;;;;;;;9.08;59.89;98567.72;4980304;28;128231;-63
2021/01/30 00:07:15;;;;;;;6.93;5.10;;;;;;;9.09;59.74;98573.88;4999037;27;97799;-63
2021/01/30 00:09:41;;;;;;;8.13;5.43;;;;;;;9.10;59.65;98565.50;5001272;27;122768;-63
2021/01/30 00:12:07;;;;;;;6.55;4.95;;;;;;;9.09;59.48;98555.84;5000281;27;117543;-62
2021/01/30 00:14:37;;;;;;;7.13;5.63;;;;;;;9.06;59.92;98550.28;4999490;27;99331;-62
2021/01/30 00:17:05;;;;;;;7.40;5.40;;;;;;;9.08;59.66;98546.19;4991403;27;108747;-63
2021/01/30 00:19:31;;;;;;;7.82;5.57;;;;;;;9.09;59.35;98541.63;4979740;28;102512;-63
2021/01/30 00:22:00;;;;;;;9.35;5.45;;;;;;;9.07;59.38;98541.13;4979335;28;111325;-62
2021/01/30 00:24:27;;;;;;;8.07;5.47;;;;;;;9.06;59.99;98537.63;4980460;28;118148;-62
2021/01/30 00:27:03;;;;;;;8.30;5.95;;;;;;;9.07;59.56;98531.16;4980706;28;126503;-63
2021/01/30 00:29:33;;;;;;;8.27;5.35;;;;;;;9.04;60.19;98522.94;4981497;27;98503;-62
2021/01/30 00:31:59;;;;;;;8.05;5.63;;;;;;;9.07;59.96;98527.69;4963045;28;98034;-63
2021/01/30 00:34:27;;;;;;;7.43;5.70;;;;;;;9.04;59.72;98528.31;4979647;28;127027;-62
2021/01/30 00:36:58;;;;;;;7.65;5.78;;;;;;;9.04;59.75;98531.00;4988714;27;98706;-62
2021/01/30 00:39:24;;;;;;;7.72;5.95;;;;;;;9.07;59.95;98541.91;4982303;27;108911;-63
2021/01/30 00:41:50;;;;;;;8.55;5.75;;;;;;;9.07;59.63;98543.81;5000350;27;118766;-62
2021/01/30 00:44:17;;;;;;;8.13;6.05;;;;;;;9.04;59.94;98533.69;4997960;27;128263;-63
2021/01/30 00:46:46;;;;;;;9.05;6.05;;;;;;;9.06;60.09;98526.88;4980347;28;121086;-63
2021/01/30 00:49:12;;;;;;;7.53;5.90;;;;;;;9.05;59.61;98519.94;4979992;27;124783;-62
2021/01/30 00:51:38;;;;;;;8.57;6.30;;;;;;;9.03;60.00;98516.72;4980992;27;117007;-63
2021/01/30 00:54:05;;;;;;;7.00;5.43;;;;;;;9.05;60.21;98505.69;4981430;28;128058;-63
2021/01/30 00:56:31;;;;;;;9.45;6.50;;;;;;;9.00;60.31;98501.25;4981204;28;105520;-62
2021/01/30 00:58:57;;;;;;;8.65;5.93;;;;;;;9.01;59.83;98502.81;4980049;28;127648;-63
2021/01/30 01:01:23;;;;;;;9.15;6.20;;;;;;;9.03;59.76;98505.19;4978416;28;117227;-63
2021/01/30 01:03:49;;;;;;;8.32;6.18;;;;;;;9.02;59.63;98492.88;4978960;28;98375;-62
2021/01/30 01:06:15;;;;;;;9.38;6.47;;;;;;;9.01;59.75;98493.97;4981742;27;98579;-64
2021/01/30 01:08:41;;;;;;;9.20;6.65;;;;;;;9.00;60.14;98493.19;4979781;28;128639;-63
2021/01/30 01:11:07;;;;;;;7.95;6.43;;;;;;;9.01;60.08;98477.84;4978971;28;117770;-62
2021/01/30 01:13:33;;;;;;;8.63;6.60;;;;;;;9.01;59.81;98489.38;4989901;27;98568;-63
2021/01/30 01:15:59;;;;;;;9.52;7.00;;;;;;;9.00;59.71;98486.97;5003531;27;98577;-62
2021/01/30 01:18:25;;;;;;;9.38;6.82;;;;;;;8.98;59.98;98489.19;5003063;27;127004;-63
2021/01/30 01:20:51;;;;;;;8.82;6.60;;;;;;;8.98;60.17;98481.94;5001733;27;111604;-62
2021/01/30 01:23:17;;;;;;;9.80;6.70;;;;;;;8.98;59.77;98500.75;4968162;27;113618;-63
2021/01/30 01:25:43;;;;;;;9.60;6.97;;;;;;;8.98;59.60;98483.81;5002951;27;127813;-63
2021/01/30 01:28:10;;;;;;;10.13;6.93;;;;;;;8.98;59.39;98489.19;5002868;27;128092;-63
2021/01/30 01:30:36;;;;;;;10.45;6.68;;;;;;;8.96;59.97;98486.00;5004794;27;97944;-63
2021/01/30 01:33:02;;;;;;;8.98;6.55;;;;;;;8.98;59.42;98481.13;5000903;27;128271;-62
2021/01/30 01:35:30;;;;;;;10.88;7.15;;;;;;;8.96;59.79;98478.75;5002192;27;120059;-63
2021/01/30 01:37:57;;;;;;;9.30;6.68;;;;;;;8.96;59.96;98476.06;5003857;27;98755;-62
2021/01/30 01:40:38;;;;;;;8.75;6.43;;;;;;;8.94;60.11;98475.56;5004396;27;111444;-63
2021/01/30 01:43:14;;;;;;;8.48;6.32;;;;;;;8.95;59.83;98476.34;4983085;28;98004;-62
2021/01/30 01:45:41;;;;;;;8.50;6.05;;;;;;;8.96;59.98;98486.81;4983618;27;123599;-62
2021/01/30 01:48:14;;;;;;;9.07;6.18;;;;;;;8.95;59.64;98485.22;4997199;27;123239;-63
2021/01/30 01:50:43;;;;;;;9.60;6.53;;;;;;;8.95;59.55;98474.47;4997708;27;107080;-62
2021/01/30 01:53:25;;;;;;;8.73;5.70;;;;;;;8.92;59.72;98476.97;4997798;27;109396;-62
2021/01/30 01:56:04;;;;;;;7.95;5.85;;;;;;;8.91;60.16;98476.16;4996992;27;98931;-62
2021/01/30 01:58:32;;;;;;;8.48;5.75;;;;;;;8.95;59.58;98470.97;4965645;28;105080;-62
2021/01/30 02:00:58;;;;;;;7.70;5.60;;;;;;;8.92;59.96;98461.66;4982162;28;103558;-62
2021/01/30 02:03:26;;;;;;;8.48;6.07;;;;;;;8.94;59.70;98475.56;4996954;27;128135;-62
2021/01/30 02:05:52;;;;;;;8.82;5.78;;;;;;;8.93;59.92;98492.00;4987867;27;123004;-63
2021/01/30 02:08:20;;;;;;;6.95;5.57;;;;;;;8.93;60.24;98490.13;5001458;27;126607;-62
2021/01/30 02:10:50;;;;;;;7.53;5.72;;;;;;;8.94;60.27;98477.47;4968378;28;97846;-63
2021/01/30 02:13:22;;;;;;;7.82;6.00;;;;;;;8.95;59.64;98479.03;4983346;28;98388;-63
2021/01/30 02:15:49;;;;;;;;;;;;;;;8.88;60.33;98484.84;4981620;28;98774;-63
2021/01/30 02:18:21;;;;;;;9.43;6.45;;;;;;;8.90;60.18;98495.28;4980482;27;121637;-63
2021/01/30 02:21:28;;;;;;;9.43;6.27;;;;;;;8.88;60.28;98495.59;4983540;27;98172;-63
2021/01/30 02:24:29;;;;;;;8.02;6.18;;;;;;;8.84;59.66;98497.28;4987769;27;98980;-63
2021/01/30 02:27:22;;;;;;;9.57;6.72;;;;;;;8.83;59.79;98509.94;4985172;27;123182;-62
2021/01/30 02:30:29;;;;;;;8.70;6.35;;;;;;;8.79;59.79;98500.88;5004015;27;97886;-62
2021/01/30 02:33:45;;;;;;;10.40;7.28;;;;;;;8.79;59.67;98492.81;4985703;27;112037;-62
2021/01/30 02:36:44;;;;;;;10.27;7.65;;;;;;;8.76;59.52;98495.31;4989426;27;98675;-62
2021/01/30 02:39:37;;;;;;;10.70;7.50;;;;;;;8.77;59.28;98507.69;4968127;28;120553;-63
2021/01/30 02:42:34;;;;;;;10.50;8.30;;;;;;;8.74;58.95;98513.66;4982220;27;121528;-63
2021/01/30 02:45:28;;;;;;;9.82;7.65;;;;;;;8.74;59.32;98509.06;4969693;27;97964;-62
2021/01/30 02:48:17;;;;;;;10.95;8.25;;;;;;;8.69;59.92;98503.81;4989089;27;108510;-62
2021/01/30 02:50:48;;;;;;;10.52;7.97;;;;;;;8.75;59.64;98513.34;5001349;27;98263;-63
2021/01/30 02:53:17;;;;;;;10.77;7.85;;;;;;;8.77;59.22;98515.72;4984289;27;121901;-63
2021/01/30 02:55:43;;;;;;;11.20;8.63;;;;;;;8.82;59.05;98521.78;4983819;27;111874;-62
2021/01/30 02:58:10;;;;;;;12.25;8.30;;;;;;;8.87;59.33;98517.38;4984774;27;98510;-63
2021/01/30 03:00:36;;;;;;;11.43;8.60;;;;;;;8.91;59.18;98534.50;4983880;27;111432;-62
2021/01/30 03:03:03;;;;;;;11.07;9.18;;;;;;;8.92;58.89;98520.78;4983385;27;128474;-62
2021/01/30 03:05:29;;;;;;;11.55;8.68;;;;;;;8.94;59.09;98532.00;4993076;27;118020;-63
2021/01/30 03:08:21;;;;;;;12.35;9.45;;;;;;;8.92;58.80;98536.91;4986390;27;127879;-63
2021/01/30 03:11:09;;;;;;;10.38;7.35;;;;;;;8.95;58.89;98547.03;4987187;27;121403;-62
2021/01/30 03:14:19;;;;;;;13.95;9.70;;;;;;;8.91;59.05;98564.06;4967616;27;111174;-62
2021/01/30 03:16:45;;;;;;;14.30;10.40;;;;;;;8.93;59.31;98586.06;4933669;28;97971;-62
2021/01/30 03:19:24;;;;;;;13.50;10.35;;;;;;;8.91;58.98;98585.56;4963085;28;125990;-62
2021/01/30 03:21:57;;;;;;;13.85;10.65;;;;;;;8.96;58.86;98588.13;4979245;28;123044;-63
2021/01/30 03:24:23;;;;;;;12.98;10.88;;;;;;;8.97;58.40;98597.78;4965067;28;114547;-63
2021/01/30 03:26:49;;;;;;;13.73;10.85;;;;;;;8.91;59.40;98596.28;4963045;28;116225;-62
2021/01/30 03:29:17;;;;;;;14.02;11.38;;;;;;;8.91;59.26;98597.09;4979100;28;126681;-63
2021/01/30 03:31:44;;;;;;;14.93;11.80;;;;;;;8.95;58.82;98598.06;4982141;27;127773;-63
2021/01/30 03:34:10;;;;;;;15.15;11.45;;;;;;;8.93;59.24;98602.97;4983773;27;98195;-63
2021/01/30 03:36:36;;;;;;;13.52;10.90;;;;;;;8.94;59.08;98606.44;4982376;27;97828;-62
2021/01/30 03:39:06;;;;;;;15.32;11.77;;;;;;;8.94;58.51;98617.19;4978124;28;116819;-63
2021/01/30 03:41:32;;;;;;;15.40;11.52;;;;;;;8.93;59.33;98619.09;4981983;28;115765;-63
2021/01/30 03:43:58;;;;;;;14.70;11.48;;;;;;;8.93;59.07;98624.47;4982408;28;125507;-62
2021/01/30 03:46:24;;;;;;;15.50;11.95;;;;;;;8.95;59.13;98632.22;4981938;28;113692;-63
2021/01/30 03:48:50;;;;;;;14.82;11.40;;;;;;;8.91;58.92;98634.72;4981596;28;112903;-62
2021/01/30 03:51:16;;;;;;;16.27;12.10;;;;;;;8.91;59.09;98637.41;4981312;28;127650;-63
2021/01/30 03:53:42;;;;;;;14.57;11.60;;;;;;;8.91;58.67;98645.47;4988749;27;127553;-62
2021/01/30 03:56:10;;;;;;;14.50;11.80;;;;;;;8.90;58.48;98649.25;5002781;27;98061;-63
2021/01/30 03:58:38;;;;;;;15.45;11.65;;;;;;;8.89;58.73;98654.94;5001721;27;98070;-62
2021/01/30 04:01:04;;;;;;;15.85;11.90;;;;;;;8.88;58.66;98661.38;4995416;27;120889;-63
2021/01/30 04:03:31;;;;;;;13.95;11.07;;;;;;;8.83;59.04;98655.00;4981385;28;104004;-62
2021/01/30 04:05:57;;;;;;;14.63;11.60;;;;;;;8.89;58.68;98681.81;4981444;28;111915;-62
2021/01/30 04:08:23;;;;;;;14.88;11.23;;;;;;;8.84;58.33;98680.81;4987532;27;98013;-62
2021/01/30 04:10:49;;;;;;;14.50;10.93;;;;;;;8.83;58.65;98697.22;4998506;27;128267;-63
2021/01/30 04:13:15;;;;;;;14.70;10.80;;;;;;;8.79;58.79;98701.59;5000311;27;121396;-63
2021/01/30 04:15:43;;;;;;;14.23;11.00;;;;;;;8.79;58.17;98699.69;5002278;27;98046;-63
2021/01/30 04:18:10;;;;;;;14.45;10.48;;;;;;;8.78;58.58;98724.19;5001381;27;98251;-63
2021/01/30 04:20:36;;;;;;;13.88;10.65;;;;;;;8.75;58.31;98736.31;5001727;27;97714;-63
2021/01/30 04:23:03;;;;;;;14.20;10.23;;;;;;;8.74;58.28;98739.31;4997258;27;98638;-62
2021/01/30 04:25:29;;;;;;;13.30;10.10;;;;;;;8.73;58.08;98743.88;5001535;27;109740;-63
2021/01/30 04:27:55;;;;;;;12.07;9.40;;;;;;;8.73;58.47;98761.91;5000943;27;98885;-62
2021/01/30 04:30:24;;;;;;;13.45;10.13;;;;;;;8.70;57.84;98757.09;5000489;27;121976;-62
2021/01/30 04:32:50;;;;;;;12.45;9.48;;;;;;;8.67;58.24;98755.81;4999694;27;97978;-63
2021/01/30 04:35:20;;;;;;;13.25;9.45;;;;;;;8.67;58.26;98761.16;4981580;27;117708;-63
2021/01/30 04:37:46;;;;;;;11.50;8.73;;;;;;;8.66;57.88;98775.69;4977873;27;125733;-62
2021/01/30 04:40:29;;;;;;;10.55;8.38;;;;;;;8.60;58.41;98780.34;4978403;28;126663;-62
2021/01/30 04:43:10;;;;;;;;;;;;;;;8.54;58.52;98788.81;4965309;28;98195;-62
2021/01/30 04:46:15;;;;;;;9.75;7.32;;;;;;;8.55;58.83;98787.72;4982468;28;97748;-62
2021/01/30 04:48:55;;;;;;;9.35;7.10;;;;;;;8.54;58.91;98792.28;4994910;27;114809;-62
2021/01/30 04:51:40;;;;;;;9.75;6.70;;;;;;;8.57;58.68;98804.34;4983479;27;98411;-62
2021/01/30 04:54:47;;;;;;;8.77;6.90;;;;;;;8.54;57.76;98807.59;5003584;27;98428;-63
2021/01/30 04:57:39;;;;;;;10.23;7.03;;;;;;;8.50;57.78;98817.34;5002882;27;98186;-63
2021/01/30 05:00:48;;;;;;;9.45;6.78;;;;;;;8.46;58.26;98824.38;4971400;27;98371;-63
2021/01/30 05:03:35;;;;;;;8.80;6.53;;;;;;;8.48;58.48;98819.50;4988262;27;98602;-62
2021/01/30 05:06:13;;;;;;;8.88;6.40;;;;;;;8.52;58.15;98833.94;5002839;27;98157;-63
2021/01/30 05:08:54;;;;;;;8.07;6.30;;;;;;;8.47;58.86;98837.50;4986714;27;101078;-62
2021/01/30 05:11:23;;;;;;;8.00;6.07;;;;;;;8.50;58.73;98839.63;5002299;27;119296;-63
2021/01/30 05:14:07;;;;;;;8.43;5.70;;;;;;;8.52;57.86;98844.69;4985261;27;128599;-62
2021/01/30 05:16:39;;;;;;;7.72;5.88;;;;;;;8.50;58.03;98850.34;4987156;27;113292;-63
2021/01/30 05:19:08;;;;;;;7.82;5.72;;;;;;;8.51;58.00;98856.53;4986365;27;102151;-63
2021/01/30 05:21:49;;;;;;;6.70;5.35;;;;;;;8.49;58.21;98861.38;4968664;28;97878;-63
2021/01/30 05:24:16;;;;;;;7.57;5.57;;;;;;;8.49;58.01;98877.50;4984092;27;98517;-62
2021/01/30 05:27:33;;;;;;;7.18;5.20;;;;;;;8.46;58.64;98891.53;4965233;28;127674;-62
2021/01/30 05:30:17;;;;;;;6.82;4.90;;;;;;;8.49;58.01;98904.34;4947909;28;98197;-63
2021/01/30 05:33:17;;;;;;;7.35;5.15;;;;;;;8.46;58.01;98903.06;4982070;28;119089;-63
2021/01/30 05:36:08;;;;;;;6.72;5.00;;;;;;;8.46;58.31;98918.38;4983064;27;99080;-63
2021/01/30 05:39:00;;;;;;;5.47;4.20;;;;;;;8.45;57.91;98931.00;4981067;28;125912;-63
2021/01/30 05:42:07;;;;;;;6.43;4.45;;;;;;;8.44;58.44;98932.06;4984298;27;98149;-63
2021/01/30 05:45:13;;;;;;;6.13;4.70;;;;;;;8.44;58.32;98926.72;4964361;28;125231;-62
2021/01/30 05:47:39;;;;;;;5.68;4.05;;;;;;;8.46;58.34;98931.81;4982792;27;98409;-62
2021/01/30 05:50:16;;;;;;;6.43;4.30;;;;;;;8.40;58.41;98939.13;4997395;27;128222;-62
2021/01/30 05:52:42;;;;;;;6.47;4.30;;;;;;;8.39;57.93;98950.16;4965507;28;98413;-63
2021/01/30 05:55:30;;;;;;;5.28;3.78;;;;;;;8.39;58.00;98960.91;4982910;28;128977;-62
2021/01/30 05:57:57;;;;;;;5.90;4.20;;;;;;;8.40;58.41;98974.03;4983675;28;102689;-63
2021/01/30 06:00:23;;;;;;;4.85;3.70;;;;;;;8.39;58.38;98977.00;4964599;27;98517;-62
2021/01/30 06:03:15;;;;;;;6.18;3.65;;;;;;;8.36;58.78;98970.28;4983267;28;113740;-63
2021/01/30 06:05:49;;;;;;;5.45;4.00;;;;;;;8.35;58.42;98982.13;4982952;27;99164;-63
2021/01/30 06:08:31;;;;;;;4.95;3.85;;;;;;;8.37;58.43;98993.41;4983854;28;98779;-63
2021/01/30 06:11:14;;;;;;;4.63;3.50;;;;;;;8.33;58.94;99008.44;4980800;28;122710;-62
2021/01/30 06:14:00;;;;;;;5.43;3.85;;;;;;;8.33;58.65;99011.97;4981249;28;115212;-63
2021/01/30 06:16:46;;;;;;;5.72;3.83;;;;;;;8.32;58.47;99021.06;4965549;28;114894;-62
2021/01/30 06:19:19;;;;;;;6.40;4.20;;;;;;;8.36;58.39;99024.00;4983600;28;98696;-63
2021/01/30 06:21:47;;;;;;;5.63;3.80;;;;;;;8.35;58.79;99033.13;4983191;28;97843;-62
2021/01/30 06:24:28;;;;;;;5.25;4.03;;;;;;;8.34;58.81;99040.41;4980677;28;97949;-63
2021/01/30 06:26:55;;;;;;;5.20;3.88;;;;;;;8.38;58.83;99042.53;4980517;28;98618;-62
2021/01/30 06:29:48;;;;;;;4.75;3.60;;;;;;;8.35;58.78;99050.03;4980589;28;97979;-63
2021/01/30 06:32:20;;;;;;;;;;;;;;;8.27;59.29;99057.94;4966177;27;122578;-62
2021/01/30 06:35:04;;;;;;;6.18;4.20;;;;;;;8.34;58.63;99066.44;4983640;28;97952;-63
2021/01/30 06:37:41;;;;;;;5.53;4.03;;;;;;;8.33;59.03;99079.09;4982929;27;98197;-62
2021/01/30 06:40:31;;;;;;;5.03;4.50;;;;;;;8.35;59.12;99084.94;4963871;28;119016;-62
2021/01/30 06:43:42;;;;;;;5.22;4.20;;;;;;;8.35;59.01;99086.84;4982148;27;120919;-62
2021/01/30 06:46:11;;;;;;;6.00;4.05;;;;;;;8.40;59.08;99105.59;4996502;27;98308;-62
2021/01/30 06:48:41;;;;;;;4.68;3.75;;;;;;;8.41;59.13;99112.59;4998647;27;98588;-62
2021/01/30 06:51:36;;;;;;;5.63;4.20;;;;;;;8.41;59.10;99119.81;4996985;27;98548;-63
2021/01/30 06:54:21;;;;;;;5.68;4.10;;;;;;;8.42;59.83;99126.81;4979250;27;113974;-63
2021/01/30 06:56:59;;;;;;;7.07;4.70;;;;;;;8.42;58.79;99129.50;4981753;27;97841;-62
2021/01/30 06:59:28;;;;;;;5.85;4.40;;;;;;;8.47;59.15;99145.56;4979826;27;98342;-60
2021/01/30 07:01:54;;;;;;;5.53;4.25;;;;;;;8.47;59.15;99148.25;4980375;27;110053;-63
2021/01/30 07:05:16;;;;;;;6.53;4.63;;;;;;;8.45;59.22;99155.75;4960942;28;126530;-63
2021/01/30 07:08:16;;;;;;;5.82;4.18;;;;;;;8.45;59.29;99158.44;4981129;27;97974;-62
2021/01/30 07:11:23;;;;;;;6.80;4.88;;;;;;;8.46;59.25;99168.94;4991973;27;98617;-63
2021/01/30 07:14:08;;;;;;;5.93;4.50;;;;;;;8.48;59.15;99177.47;4971464;27;123942;-63
2021/01/30 07:16:56;;;;;;;6.20;4.60;;;;;;;8.46;58.96;99185.03;4998964;27;98072;-63
2021/01/30 07:20:13;;;;;;;6.05;4.85;;;;;;;8.47;59.62;99199.25;4984356;27;98130;-63
2021/01/30 07:23:03;;;;;;;9.50;4.90;;;;;;;8.50;59.68;99204.06;4904140;28;119365;-63
2021/01/30 07:25:47;;;;;;;5.40;4.30;;;;;;;8.50;59.85;99201.38;4919394;28;98703;-62
2021/01/30 07:28:29;;;;;;;6.90;5.00;;;;;;;8.47;59.87;99205.44;4942898;27;126587;-63
2021/01/30 07:30:59;;;;;;;7.78;4.80;;;;;;;8.53;59.72;99211.56;4981823;27;115178;-63
2021/01/30 07:34:01;;;;;;;5.88;4.45;;;;;;;8.50;59.65;99215.63;4980019;27;98674;-63
2021/01/30 07:36:44;;;;;;;6.28;4.85;;;;;;;8.57;59.93;99218.78;4982220;27;100250;-62
2021/01/30 07:39:50;;;;;;;6.38;4.68;;;;;;;8.57;60.42;99229.53;4994072;27;105894;-63
2021/01/30 07:42:55;;;;;;;6.03;4.72;;;;;;;8.58;60.19;99227.63;4993144;27;98155;-63
2021/01/30 07:45:35;;;;;;;6.32;4.90;;;;;;;8.59;60.14;99226.53;4981843;27;123892;-63
2021/01/30 07:48:28;;;;;;;7.28;4.95;;;;;;;8.65;60.19;99238.84;4964487;28;99266;-63
2021/01/30 07:50:56;;;;;;;6.15;4.72;;;;;;;8.64;60.83;99250.66;4980582;27;123125;-62
2021/01/30 07:53:24;;;;;;;6.63;5.10;;;;;;;8.68;60.53;99243.63;4997833;27;97991;-63
2021/01/30 07:56:18;;;;;;;7.53;5.13;;;;;;;8.69;60.66;99244.47;4977538;27;98598;-63
2021/01/30 07:59:18;;;;;;;6.70;5.10;;;;;;;8.75;60.83;99244.09;4978569;27;98371;-63
2021/01/30 08:02:17;;;;;;;6.82;5.25;;;;;;;8.78;60.94;99248.13;4978644;27;98050;-62
2021/01/30 08:05:37;;;;;;;7.22;5.03;;;;;;;8.82;60.93;99243.78;4978047;27;97778;-63
2021/01/30 08:08:27;;;;;;;6.82;5.22;;;;;;;8.86;61.22;99252.88;4977117;27;120156;-62
2021/01/30 08:11:12;;;;;;;7.07;4.93;;;;;;;8.87;61.40;99249.09;4981613;27;98588;-62
2021/01/30 08:13:58;;;;;;;6.38;4.82;;;;;;;8.92;61.66;99251.75;4980968;27;125818;-62
2021/01/30 08:16:51;;;;;;;5.90;5.05;;;;;;;8.93;61.41;99258.72;5000161;27;97728;-63
2021/01/30 08:19:41;;;;;;;6.40;4.97;;;;;;;8.96;61.80;99260.84;4963117;28;99081;-64
2021/01/30 08:22:19;;;;;;;6.28;4.97;;;;;;;8.95;61.71;99269.16;4977502;28;99082;-63
2021/01/30 08:25:00;;;;;;;6.95;4.93;;;;;;;8.97;61.49;99275.88;4974076;27;122977;-63
2021/01/30 08:27:35;;;;;;;6.05;4.88;;;;;;;9.03;61.95;99274.72;4943913;28;112779;-63
2021/01/30 08:30:21;;;;;;;6.57;4.95;;;;;;;9.03;62.29;99266.66;4960510;27;111971;-62
2021/01/30 08:32:55;;;;;;;6.78;5.28;;;;;;;9.07;62.10;99275.75;4960660;28;98388;-63
2021/01/30 08:35:21;;;;;;;6.78;5.25;;;;;;;9.12;61.62;99279.47;4978316;27;98006;-63
2021/01/30 08:37:58;;;;;;;7.00;5.68;;;;;;;9.09;62.36;99278.16;4985670;27;97945;-63
2021/01/30 08:40:43;;;;;;;6.00;5.25;;;;;;;9.12;62.17;99279.47;4999436;27;102601;-62
2021/01/30 08:43:09;;;;;;;7.40;5.57;;;;;;;9.19;62.28;99290.69;4979118;28;98603;-63
2021/01/30 08:45:35;;;;;;;6.85;5.45;;;;;;;9.20;62.17;99290.41;4960301;28;98138;-64
2021/01/30 08:48:11;;;;;;;7.00;5.68;;;;;;;9.21;61.65;99288.50;4976861;28;98032;-63
2021/01/30 08:50:47;;;;;;;6.70;5.43;;;;;;;9.22;62.66;99287.41;4977418;27;104841;-62
2021/01/30 08:53:26;;;;;;;8.05;5.93;;;;;;;9.24;62.41;99293.31;4976426;28;121967;-62
2021/01/30 08:56:06;;;;;;;7.88;5.45;;;;;;;9.22;62.41;99298.97;4975084;28;114601;-64
2021/01/30 08:58:37;;;;;;;7.55;5.80;;;;;;;9.26;62.96;99304.59;4996737;27;108947;-63
2021/01/30 09:01:12;;;;;;;7.68;5.40;;;;;;;9.25;63.64;99305.69;4998920;27;98790;-63
2021/01/30 09:03:50;;;;;;;7.22;5.63;;;;;;;9.26;62.78;99305.38;4998589;27;98466;-63
2021/01/30 09:06:40;;;;;;;7.88;5.50;;;;;;;9.26;62.71;99312.66;4989665;27;97801;-62
2021/01/30 09:09:19;;;;;;;6.90;5.68;;;;;;;9.27;62.60;99306.19;4979303;27;98100;-63
2021/01/30 09:11:50;;;;;;;7.07;5.57;;;;;;;9.36;62.77;99314.44;4977321;27;122478;-63
2021/01/30 09:14:19;;;;;;;6.63;5.60;;;;;;;9.34;63.81;99318.19;4959846;28;118303;-62
2021/01/30 09:16:57;;;;;;;7.90;6.00;;;;;;;9.36;63.29;99323.31;4990724;27;98210;-63
2021/01/30 09:19:54;;;;;;;6.97;5.80;;;;;;;9.36;63.76;99320.63;4979247;28;97797;-63
2021/01/30 09:22:35;;;;;;;7.15;5.72;;;;;;;9.34;63.78;99320.09;4978654;27;114322;-62
2021/01/30 09:25:33;;;;;;;7.93;5.95;;;;;;;9.37;63.27;99327.59;4989205;27;98731;-62
2021/01/30 09:28:08;;;;;;;6.70;5.70;;;;;;;9.40;63.65;99340.47;4996952;27;113917;-63
2021/01/30 09:31:04;;;;;;;6.75;6.03;;;;;;;9.44;63.36;99341.50;4963769;28;98012;-62
2021/01/30 09:33:37;;;;;;;7.38;6.03;;;;;;;9.46;62.79;99328.53;4981724;27;98929;-63
2021/01/30 09:36:23;;;;;;;6.63;5.80;;;;;;;9.56;63.03;99339.19;4980758;27;98705;-65
2021/01/30 09:38:51;;;;;;;8.05;6.28;;;;;;;9.62;62.46;99331.84;4968502;27;98136;-62
2021/01/30 09:41:32;;;;;;;7.60;6.10;;;;;;;9.63;63.12;99330.78;4950029;28;97997;-63
2021/01/30 09:44:16;;;;;;;6.97;5.70;;;;;;;9.68;62.55;99338.78;4981259;28;98974;-63
2021/01/30 09:46:44;;;;;;;7.70;6.18;;;;;;;9.72;63.06;99341.72;4979398;28;99038;-62
2021/01/30 09:49:16;;;;;;;7.60;6.10;;;;;;;9.75;62.96;99344.63;4982455;27;109712;-63
2021/01/30 09:51:42;;;;;;;7.10;5.90;;;;;;;9.80;62.23;99335.69;4977244;27;97830;-62
2021/01/30 09:54:12;;;;;;;7.43;6.00;;;;;;;9.84;63.09;99340.19;4983031;27;98813;-62
2021/01/30 09:56:38;;;;;;;8.55;6.47;;;;;;;9.91;62.81;99347.91;4962651;28;98949;-62
2021/01/30 09:59:04;;;;;;;8.10;6.43;;;;;;;9.95;62.88;99338.16;4961246;27;127409;-62
2021/01/30 10:01:44;;;;;;;8.50;6.35;;;;;;;9.95;63.17;99351.63;4962678;28;98083;-63
2021/01/30 10:04:24;;;;;;;8.02;6.53;;;;;;;9.97;63.28;99343.25;4980608;28;109439;-63
2021/01/30 10:06:53;;;;;;;8.10;6.30;;;;;;;9.97;63.02;99343.25;4995903;27;106436;-62
2021/01/30 10:09:26;;;;;;;9.32;6.60;;;;;;;9.94;62.94;99360.81;4998522;27;121239;-63
2021/01/30 10:11:57;;;;;;;6.68;5.90;;;;;;;9.93;62.77;99361.88;4999156;27;118583;-62
2021/01/30 10:14:25;;;;;;;8.20;6.30;;;;;;;9.99;63.47;99373.41;4961988;28;121617;-62
2021/01/30 10:17:09;;;;;;;8.02;6.82;;;;;;;10.00;62.96;99364.22;4979851;28;98498;-62
2021/01/30 10:19:36;;;;;;;7.30;6.35;;;;;;;9.98;63.68;99367.22;4964897;27;111908;-63
2021/01/30 10:22:20;;;;;;;7.90;6.07;;;;;;;9.94;63.76;99366.19;4990443;27;98341;-64
2021/01/30 10:24:47;;;;;;;7.38;5.85;;;;;;;10.00;63.62;99364.22;4980681;27;98394;-63
2021/01/30 10:27:22;;;;;;;8.00;5.65;;;;;;;10.02;63.02;99370.09;5000506;27;98504;-63
2021/01/30 10:29:50;;;;;;;7.38;5.95;;;;;;;10.02;63.58;99375.47;5000729;27;98349;-63
2021/01/30 10:32:20;;;;;;;6.95;5.88;;;;;;;10.02;63.91;99378.19;4986264;27;97888;-63
2021/01/30 10:34:52;;;;;;;7.63;5.88;;;;;;;9.98;63.55;99383.38;4962244;27;98389;-64
2021/01/30 10:37:40;;;;;;;6.63;5.65;;;;;;;9.96;63.64;99390.13;4994259;27;116774;-63
2021/01/30 10:40:17;;;;;;;6.80;5.30;;;;;;;9.90;64.11;99389.38;4964243;28;100396;-63
2021/01/30 10:42:43;;;;;;;6.90;5.25;;;;;;;9.93;63.62;99388.78;4979140;27;98173;-63
2021/01/30 10:45:23;;;;;;;6.43;5.00;;;;;;;9.95;64.30;99386.63;4960609;27;127681;-63
2021/01/30 10:48:01;;;;;;;6.85;5.07;;;;;;;9.94;64.54;99393.13;4978672;27;127451;-63
2021/01/30 10:50:34;;;;;;;6.15;5.00;;;;;;;9.93;63.95;99380.72;4981965;27;125658;-63
2021/01/30 10:53:21;;;;;;;6.85;5.45;;;;;;;9.91;63.95;99379.44;4982903;27;98020;-63
2021/01/30 10:55:49;;;;;;;7.05;5.40;;;;;;;9.90;64.42;99375.91;5000057;27;98217;-62
2021/01/30 10:58:27;;;;;;;6.95;5.47;;;;;;;9.87;63.91;99381.88;4980735;27;116922;-63
2021/01/30 11:01:32;;;;;;;5.80;5.20;;;;;;;9.83;63.38;99380.88;4997333;27;100480;-63
2021/01/30 11:03:59;;;;;;;5.55;4.90;;;;;;;9.83;64.11;99397.81;4999926;27;98197;-62
2021/01/30 11:06:41;;;;;;;6.43;5.15;;;;;;;9.82;63.72;99398.06;4999048;27;112777;-62
2021/01/30 11:09:18;;;;;;;5.53;5.03;;;;;;;9.82;64.00;99403.47;4966359;27;98775;-64
2021/01/30 11:11:45;;;;;;;6.07;5.30;;;;;;;9.82;63.57;99406.97;4973658;27;97960;-64
2021/01/30 11:14:25;;;;;;;5.95;5.28;;;;;;;9.82;63.46;99396.22;4965676;27;117663;-62
2021/01/30 11:16:51;;;;;;;5.55;4.53;;;;;;;9.78;63.17;99403.22;4997598;27;106891;-64
2021/01/30 11:19:31;;;;;;;5.78;4.53;;;;;;;9.82;63.83;99398.06;4980974;27;101099;-62
2021/01/30 11:22:21;;;;;;;5.68;4.60;;;;;;;9.77;62.99;99404.31;4990569;27;98169;-63
2021/01/30 11:25:10;;;;;;;6.78;5.15;;;;;;;9.75;63.76;99409.22;4999390;27;97928;-63
2021/01/30 11:27:49;;;;;;;23.27;17.73;;;;;;;9.78;63.83;99405.94;4996816;27;98161;-62
2021/01/30 11:30:16;;;;;;;25.23;18.17;;;;;;;9.79;62.77;99409.44;4989509;27;98427;-62
2021/01/30 11:32:51;;;;;;;22.40;16.08;;;;;;;9.78;63.60;99413.19;4980348;27;98016;-62
2021/01/30 11:35:38;;;;;;;19.83;14.77;;;;;;;9.73;63.46;99419.44;4962389;27;98047;-63
2021/01/30 11:38:11;;;;;;;18.23;13.60;;;;;;;9.71;63.35;99415.47;4977616;27;125480;-63
2021/01/30 11:40:38;;;;;;;16.73;12.65;;;;;;;9.69;63.61;99413.03;4961402;28;98271;-63
2021/01/30 11:43:04;;;;;;;14.82;11.35;;;;;;;9.68;63.68;99418.72;4979229;27;98123;-63
2021/01/30 11:45:30;;;;;;;14.30;10.30;;;;;;;9.67;63.84;99415.22;4992481;27;99076;-64
2021/01/30 11:47:56;;;;;;;13.45;10.15;;;;;;;9.67;63.08;99417.91;4997758;27;126704;-62
2021/01/30 11:50:22;;;;;;;12.07;8.80;;;;;;;9.67;63.65;99423.31;4994406;27;115286;-63
2021/01/30 11:52:48;;;;;;;12.30;9.20;;;;;;;9.69;62.91;99420.31;4988452;27;127951;-62
2021/01/30 11:55:14;;;;;;;11.23;8.63;;;;;;;9.73;63.11;99416.75;4987573;27;118033;-63
2021/01/30 11:57:40;;;;;;;10.45;7.75;;;;;;;9.79;63.06;99417.53;4992774;27;98582;-63
2021/01/30 12:00:08;;;;;;;10.77;7.35;;;;;;;9.78;62.68;99416.69;4985559;27;126913;-64
2021/01/30 12:02:37;;;;;;;9.95;7.15;;;;;;;9.84;63.75;99428.22;4970445;27;99090;-62
2021/01/30 12:05:05;;;;;;;8.90;6.70;;;;;;;9.84;62.45;99420.94;4990808;27;97990;-62
2021/01/30 12:07:31;;;;;;;7.45;6.22;;;;;;;9.82;62.37;99428.50;4985203;27;97928;-63
2021/01/30 12:09:57;;;;;;;7.70;5.68;;;;;;;9.82;62.88;99433.91;4984042;27;128655;-63
2021/01/30 12:12:23;;;;;;;6.25;5.20;;;;;;;9.83;62.61;99432.00;4988166;27;98096;-63
2021/01/30 12:14:49;;;;;;;6.57;5.05;;;;;;;9.80;63.35;99432.56;4988761;27;104370;-63
2021/01/30 12:17:35;;;;;;;6.32;4.63;;;;;;;9.81;63.10;99426.88;4978094;27;128488;-63
2021/01/30 12:20:03;;;;;;;5.78;4.75;;;;;;;9.82;63.22;99425.00;4969315;27;100054;-64